Darstellungsparameter: Aktuell verwendete Einstellungen:
Skalierung der Graphiken ... ?
xyx+y,   Skalierungsfaktor:      Skalierung: Modus: x, Faktor: 1
Darstellungszeitraum ... ?
Vom - - bis: - -   Zeitraum: 25.01.2021 - 25.01.2021
Min/Max/Avg-Anzeige ... ?
Zeige MMA aktuell
Zeige MMA Monat
Zeige MMA alles
Zeige --A aktuell
Zeige --A Monat
Zeige --A alles
Keine MMA-Anzeige
MMA:
Average (ber die Originaldaten)
MMA-Basis: 23.02.2003 - 29.09.2020
Quicknavigation für Darstellung... ?
Tage:      1T, 2T, 3T, 5T -1T -2T -3T -5T +1T +2T +3T +5T
Wochen: 1W, 2W, 3W -1W -2W -3W +1W +2W +3W
Monate: 1M, 3M, 6M -1M -3M -6M +1M +3M +6M
Jahre:    1J, 3J, 5J, 10J -1J -3J -5J -10J +1J +3J +5J +10J
Nutze für die Darstellung ... ?
Originaldaten oder Mittelwerte auf ...
Stundenbasis Tagesbasis Wochenbasis
Monatsbasis Jahresbasis      Datenbasis: Original-Daten
Darstellen als:
Statistik (Auto) Statistik J:M      Darstellung:

Der gewünschte Datumsbereich war nicht gültig/verfügbar und wurde korrigiert....
Das angegebene Enddatum (28.09.2021 23:59:59) liegt in der Zukunft.
Das angegebene Startdatum (26.09.2021 00:00:00) liegt in der Zukunft.


Zur Graphik,    zurück zur Übersicht aller Sensoren.
 
Tabellarische Datenbersicht: ?
 
Sensor: Nr:Datum:Temp:Abs-Feuchte:Windchill:Wind:
Aussen-T/F 1 25-01-2021 01:00:00 1 C 4.72 g/m*3 1 C 4.8 km/h
2 25-01-2021 01:05:00 1 C 4.78 g/m*3 1 C 4.8 km/h
3 25-01-2021 01:10:00 0.9 C 4.74 g/m*3 0.9 C 1.6 km/h
4 25-01-2021 01:15:00 0.9 C 4.74 g/m*3 0.9 C 1.6 km/h
5 25-01-2021 01:20:00 0.9 C 4.74 g/m*3 0.9 C 0 km/h
6 25-01-2021 01:25:00 0.8 C 4.76 g/m*3 0.8 C 0 km/h
7 25-01-2021 01:30:00 0.8 C 4.76 g/m*3 0.8 C 0 km/h
8 25-01-2021 01:35:00 0.8 C 4.76 g/m*3 0.8 C 0 km/h
9 25-01-2021 01:40:00 0.8 C 4.76 g/m*3 0.8 C 1.6 km/h
10 25-01-2021 01:45:00 0.8 C 4.76 g/m*3 0.8 C 0 km/h
11 25-01-2021 01:50:00 0.7 C 4.73 g/m*3 0.7 C 0 km/h
12 25-01-2021 01:55:00 0.8 C 4.76 g/m*3 0.8 C 1.6 km/h
13 25-01-2021 02:00:00 0.8 C 4.76 g/m*3 0.8 C 3.2 km/h
14 25-01-2021 02:05:00 0.8 C 4.76 g/m*3 0.8 C 4.8 km/h
15 25-01-2021 02:10:00 0.9 C 4.79 g/m*3 -1.14 C 6.4 km/h
16 25-01-2021 02:15:00 0.9 C 4.79 g/m*3 0.9 C 3.2 km/h
17 25-01-2021 02:20:00 0.9 C 4.79 g/m*3 0.9 C 3.2 km/h
18 25-01-2021 02:25:00 0.9 C 4.79 g/m*3 0.9 C 0 km/h
19 25-01-2021 02:30:00 0.9 C 4.79 g/m*3 0.9 C 1.6 km/h
20 25-01-2021 02:35:00 0.9 C 4.79 g/m*3 0.9 C 1.6 km/h
21 25-01-2021 02:40:00 0.9 C 4.79 g/m*3 0.9 C 0 km/h
22 25-01-2021 02:45:00 0.9 C 4.79 g/m*3 0.9 C 0 km/h
23 25-01-2021 02:50:00 0.9 C 4.79 g/m*3 0.9 C 3.2 km/h
24 25-01-2021 02:55:00 0.9 C 4.79 g/m*3 0.9 C 1.6 km/h
25 25-01-2021 03:00:00 0.8 C 4.76 g/m*3 -1.26 C 6.4 km/h
Sensor: Nr:Datum:Temp:Abs-Feuchte:Windchill:Wind:
Aussen-T/F 26 25-01-2021 03:05:00 0.9 C 4.79 g/m*3 0.9 C 3.2 km/h
27 25-01-2021 03:10:00 0.9 C 4.79 g/m*3 0.9 C 4.8 km/h
28 25-01-2021 03:15:00 0.9 C 4.79 g/m*3 0.9 C 3.2 km/h
29 25-01-2021 03:20:00 0.9 C 4.74 g/m*3 -1.71 C 8.1 km/h
30 25-01-2021 03:25:00 0.9 C 4.79 g/m*3 0.9 C 3.2 km/h
31 25-01-2021 03:30:00 0.9 C 4.79 g/m*3 0.9 C 4.8 km/h
32 25-01-2021 03:35:00 0.9 C 4.79 g/m*3 0.9 C 1.6 km/h
33 25-01-2021 03:40:00 0.9 C 4.74 g/m*3 0.9 C 1.6 km/h
34 25-01-2021 03:45:00 0.8 C 4.71 g/m*3 0.8 C 3.2 km/h
35 25-01-2021 03:50:00 0.8 C 4.71 g/m*3 0.8 C 3.2 km/h
36 25-01-2021 03:55:00 0.8 C 4.71 g/m*3 -1.83 C 8.1 km/h
37 25-01-2021 04:00:00 0.9 C 4.79 g/m*3 -2.16 C 9.7 km/h
38 25-01-2021 04:05:00 0.9 C 4.79 g/m*3 -2.16 C 9.7 km/h
39 25-01-2021 04:10:00 0.9 C 4.79 g/m*3 -1.71 C 8.1 km/h
40 25-01-2021 04:15:00 0.9 C 4.79 g/m*3 -1.14 C 6.4 km/h
41 25-01-2021 04:20:00 1 C 4.83 g/m*3 -1.03 C 6.4 km/h
42 25-01-2021 04:25:00 1 C 4.83 g/m*3 -1.59 C 8.1 km/h
43 25-01-2021 04:30:00 1.1 C 4.81 g/m*3 -1.48 C 8.1 km/h
44 25-01-2021 04:35:00 1.1 C 4.81 g/m*3 1.1 C 4.8 km/h
45 25-01-2021 04:40:00 1.1 C 4.81 g/m*3 1.1 C 4.8 km/h
46 25-01-2021 04:45:00 1.1 C 4.81 g/m*3 -1.48 C 8.1 km/h
47 25-01-2021 04:50:00 1.2 C 4.84 g/m*3 1.2 C 3.2 km/h
48 25-01-2021 04:55:00 1.2 C 4.84 g/m*3 -0.8 C 6.4 km/h
49 25-01-2021 05:00:00 1.2 C 4.84 g/m*3 1.2 C 4.8 km/h
50 25-01-2021 05:05:00 1.2 C 4.84 g/m*3 1.2 C 1.6 km/h
Sensor: Nr:Datum:Temp:Abs-Feuchte:Windchill:Wind:
Aussen-T/F 51 25-01-2021 05:10:00 1.2 C 4.84 g/m*3 1.2 C 4.8 km/h
52 25-01-2021 05:15:00 1.2 C 4.84 g/m*3 1.2 C 1.6 km/h
53 25-01-2021 05:20:00 1.2 C 4.84 g/m*3 1.2 C 4.8 km/h
54 25-01-2021 05:25:00 1.2 C 4.84 g/m*3 1.2 C 1.6 km/h
55 25-01-2021 05:30:00 1.2 C 4.84 g/m*3 1.2 C 3.2 km/h
56 25-01-2021 05:35:00 1.2 C 4.84 g/m*3 1.2 C 0 km/h
57 25-01-2021 05:40:00 1.2 C 4.84 g/m*3 1.2 C 1.6 km/h
58 25-01-2021 05:45:00 1.2 C 4.84 g/m*3 1.2 C 0 km/h
59 25-01-2021 05:50:00 1.2 C 4.89 g/m*3 1.2 C 0 km/h
60 25-01-2021 05:55:00 1.2 C 4.84 g/m*3 1.2 C 0 km/h
61 25-01-2021 06:00:00 1.2 C 4.84 g/m*3 1.2 C 0 km/h
62 25-01-2021 06:05:00 1.2 C 4.89 g/m*3 1.2 C 0 km/h
63 25-01-2021 06:10:00 1.1 C 4.86 g/m*3 1.1 C 0 km/h
64 25-01-2021 06:15:00 1.1 C 4.86 g/m*3 1.1 C 0 km/h
65 25-01-2021 06:20:00 1.1 C 4.86 g/m*3 1.1 C 0 km/h
66 25-01-2021 06:25:00 1.1 C 4.86 g/m*3 1.1 C 0 km/h
67 25-01-2021 06:30:00 1.1 C 4.86 g/m*3 1.1 C 0 km/h
68 25-01-2021 06:35:00 1 C 4.83 g/m*3 1 C 0 km/h
69 25-01-2021 06:40:00 1 C 4.83 g/m*3 1 C 0 km/h
70 25-01-2021 06:45:00 1 C 4.83 g/m*3 1 C 0 km/h
71 25-01-2021 06:50:00 0.9 C 4.79 g/m*3 0.9 C 0 km/h
72 25-01-2021 06:55:00 0.9 C 4.79 g/m*3 0.9 C 0 km/h
73 25-01-2021 07:00:00 0.9 C 4.79 g/m*3 0.9 C 0 km/h
74 25-01-2021 07:05:00 0.9 C 4.79 g/m*3 0.9 C 0 km/h
75 25-01-2021 07:10:00 0.9 C 4.79 g/m*3 0.9 C 0 km/h
Sensor: Nr:Datum:Temp:Abs-Feuchte:Windchill:Wind:
Aussen-T/F 76 25-01-2021 07:15:00 0.9 C 4.79 g/m*3 0.9 C 0 km/h
77 25-01-2021 07:20:00 0.9 C 4.85 g/m*3 0.9 C 0 km/h
78 25-01-2021 07:25:00 0.9 C 4.85 g/m*3 0.9 C 0 km/h
79 25-01-2021 07:30:00 0.9 C 4.85 g/m*3 0.9 C 0 km/h
80 25-01-2021 07:35:00 0.9 C 4.85 g/m*3 0.9 C 0 km/h
81 25-01-2021 07:40:00 0.9 C 4.85 g/m*3 0.9 C 0 km/h
82 25-01-2021 07:45:00 0.9 C 4.85 g/m*3 0.9 C 0 km/h
83 25-01-2021 07:50:00 0.9 C 4.85 g/m*3 0.9 C 0 km/h
84 25-01-2021 07:55:00 0.9 C 4.85 g/m*3 0.9 C 0 km/h
85 25-01-2021 08:00:00 0.9 C 4.85 g/m*3 0.9 C 0 km/h
86 25-01-2021 08:05:00 0.9 C 4.85 g/m*3 0.9 C 0 km/h

Legende:
   Min
   Max


Maximal/Minimal-Werte vom 23.02.2003 - 29.09.2020

Sensor Min Max Avg
Temp
(Aussen-T/F)
-16.4 °C
20-12-2009  01:30:01
40.4 °C
25-07-2019  16:20:00
11.32 °C

Die Daten stammen von einer Davis Vantage Pro 2 Wetter-Station und werden unter Linux mit der Software wview2wettercgi und aufbereitet. Alle Angaben erfolgen ohne Gewähr für ihre Vollständigkeit oder Richtigkeit.
Kontakt: Rainer Krienke krienke@uni-koblenz.de . Meine Webseiten an der Uni Koblenz oder privat.
Version: $Revision: 0.78 $